Terminal Aerodrome Forecast
Issued by NWS Shreveport, LA

Home | Current Version | Previous Version | Text Only | Print | Product List | Glossary On
Versions: 1 2 3 4 5 6 7 8 9 10 11 12 13 14 15 16 17 18 19 20 21 22
518
FTUS44 KSHV 211123
TAFLFK
TAF
KLFK 211123Z 2112/2212 12005KT P6SM SKC
      TEMPO 2112/2116 BKN015
     FM211600 17006KT P6SM OVC015
     FM211800 18008KT P6SM OVC015
     FM212100 20008KT P6SM VCSH OVC015
     FM220000 22006KT P6SM SCT030 BKN140
     FM220700 21009G16KT P6SM SCT250=

USA.gov is the U.S. government's official web portal to all federal, state and local government web resources and services.